createdAt,value
2022-11-16T00:02:22.256Z,7.90
2022-11-16T00:04:48.816Z,7.90
2022-11-16T00:07:15.404Z,7.90
2022-11-16T00:09:42.006Z,7.90
2022-11-16T00:12:08.595Z,7.90
2022-11-16T00:14:36.292Z,7.90
2022-11-16T00:17:03.722Z,7.90
2022-11-16T00:19:30.475Z,8.00
2022-11-16T00:21:57.145Z,7.90
2022-11-16T00:24:24.096Z,8.00
2022-11-16T00:26:53.179Z,8.00
2022-11-16T00:29:25.416Z,8.00
2022-11-16T00:31:52.778Z,8.00
2022-11-16T00:34:19.599Z,8.00
2022-11-16T00:36:46.685Z,8.20
2022-11-16T00:39:14.676Z,8.20
2022-11-16T00:41:42.219Z,8.30
2022-11-16T00:44:09.201Z,8.20
2022-11-16T00:46:35.876Z,8.20
2022-11-16T00:49:02.700Z,8.30
2022-11-16T00:51:29.267Z,8.20
2022-11-16T00:53:55.850Z,8.20
2022-11-16T00:56:22.516Z,8.20
2022-11-16T00:58:49.496Z,8.10
2022-11-16T01:01:16.205Z,8.10
2022-11-16T01:03:42.829Z,8.10
2022-11-16T01:06:12.363Z,8.00
2022-11-16T01:08:40.324Z,8.00
2022-11-16T01:11:08.281Z,8.00
2022-11-16T01:13:34.841Z,8.10
2022-11-16T01:16:01.417Z,8.00
2022-11-16T01:18:27.976Z,8.00
2022-11-16T01:20:54.547Z,7.90
2022-11-16T01:23:21.104Z,8.00
2022-11-16T01:25:56.839Z,7.90
2022-11-16T01:28:23.391Z,8.00
2022-11-16T01:30:49.955Z,7.90
2022-11-16T01:33:16.500Z,7.90
2022-11-16T01:35:43.814Z,7.90
2022-11-16T01:38:10.365Z,7.90
2022-11-16T01:40:37.981Z,7.90
2022-11-16T01:43:15.896Z,7.90
2022-11-16T01:45:42.659Z,7.90
2022-11-16T01:48:12.692Z,7.90
2022-11-16T01:50:39.876Z,7.90
2022-11-16T01:53:08.721Z,7.90
2022-11-16T01:55:36.865Z,7.90
2022-11-16T01:58:04.070Z,7.90
2022-11-16T02:00:30.716Z,7.90
2022-11-16T02:02:57.305Z,8.00
2022-11-16T02:05:42.026Z,7.90
2022-11-16T02:08:28.831Z,7.90
2022-11-16T02:11:19.518Z,7.90
2022-11-16T02:14:07.423Z,7.80
2022-11-16T02:17:12.080Z,7.80
2022-11-16T02:20:15.996Z,7.80
2022-11-16T02:23:05.930Z,7.80
2022-11-16T02:26:05.606Z,7.80
2022-11-16T02:28:52.168Z,7.80
2022-11-16T02:31:27.144Z,7.70
2022-11-16T02:33:56.439Z,7.70
2022-11-16T02:36:24.883Z,7.70
2022-11-16T02:39:03.921Z,7.70
2022-11-16T02:41:34.925Z,7.60
2022-11-16T02:44:10.808Z,7.60
2022-11-16T02:46:39.771Z,7.70
2022-11-16T02:49:11.694Z,7.70
2022-11-16T02:51:39.646Z,7.70
2022-11-16T02:54:17.104Z,7.70
2022-11-16T02:57:02.413Z,7.70
2022-11-16T03:00:02.246Z,7.60
2022-11-16T03:03:03.166Z,7.60
2022-11-16T03:05:41.081Z,7.60
2022-11-16T03:08:12.603Z,7.60
2022-11-16T03:10:40.507Z,7.60
2022-11-16T03:13:11.393Z,7.50
2022-11-16T03:15:41.128Z,7.50
2022-11-16T03:18:09.116Z,7.50
2022-11-16T03:20:37.669Z,7.50
2022-11-16T03:23:08.285Z,7.50
2022-11-16T03:25:47.020Z,7.60
2022-11-16T03:28:24.356Z,7.60
2022-11-16T03:30:55.449Z,7.60
2022-11-16T03:33:32.907Z,7.60
2022-11-16T03:36:18.687Z,7.60
2022-11-16T03:38:47.731Z,7.60
2022-11-16T03:41:15.147Z,7.60
2022-11-16T03:43:43.748Z,7.60
2022-11-16T03:46:10.501Z,7.50
2022-11-16T03:48:39.503Z,7.50
2022-11-16T03:51:08.644Z,7.50
2022-11-16T03:53:35.216Z,7.50
2022-11-16T03:56:02.276Z,7.50
2022-11-16T03:58:28.880Z,7.40
2022-11-16T04:00:55.517Z,7.40
2022-11-16T04:03:22.089Z,7.40
2022-11-16T04:05:49.289Z,7.40
2022-11-16T04:08:17.759Z,7.30
2022-11-16T04:10:44.760Z,7.30
2022-11-16T04:13:13.617Z,7.30
2022-11-16T04:15:40.163Z,7.30
2022-11-16T04:18:09.949Z,7.30
2022-11-16T04:20:36.672Z,7.30
2022-11-16T04:23:14.764Z,7.30
2022-11-16T04:25:44.273Z,7.30
2022-11-16T04:28:11.048Z,7.30
2022-11-16T04:30:37.710Z,7.30
2022-11-16T04:33:04.310Z,7.30
2022-11-16T04:35:30.848Z,7.30
2022-11-16T04:37:58.927Z,7.30
2022-11-16T04:40:27.076Z,7.30
2022-11-16T04:42:58.686Z,7.30
2022-11-16T04:45:27.616Z,7.30
2022-11-16T04:47:54.376Z,7.30
2022-11-16T04:50:22.012Z,7.30
2022-11-16T04:52:48.566Z,7.30
2022-11-16T04:55:15.224Z,7.30
2022-11-16T04:57:41.784Z,7.30
2022-11-16T05:00:09.040Z,7.30
2022-11-16T05:02:35.601Z,7.30
2022-11-16T05:05:02.180Z,7.30
2022-11-16T05:07:28.790Z,7.30
2022-11-16T05:09:55.434Z,7.30
2022-11-16T05:12:24.636Z,7.30
2022-11-16T05:14:51.994Z,7.30
2022-11-16T05:17:19.306Z,7.30
2022-11-16T05:19:45.964Z,7.30
2022-11-16T05:22:12.515Z,7.40
2022-11-16T05:24:39.078Z,7.40
2022-11-16T05:27:08.089Z,7.40
2022-11-16T05:29:35.014Z,7.40
2022-11-16T05:32:02.115Z,7.30
2022-11-16T05:34:28.996Z,7.40
2022-11-16T05:36:56.356Z,7.40
2022-11-16T05:39:23.131Z,7.40
2022-11-16T05:41:50.145Z,7.40
2022-11-16T05:44:17.254Z,7.40
2022-11-16T05:46:44.539Z,7.40
2022-11-16T05:49:12.604Z,7.50
2022-11-16T05:51:43.805Z,7.50
2022-11-16T05:54:16.556Z,7.50
2022-11-16T05:56:43.117Z,7.50
2022-11-16T05:59:16.289Z,7.50
2022-11-16T06:01:43.684Z,7.50
2022-11-16T06:04:10.588Z,7.50
2022-11-16T06:06:37.314Z,7.50
2022-11-16T06:09:04.365Z,7.60
2022-11-16T06:11:35.833Z,7.50
2022-11-16T06:14:03.057Z,7.50
2022-11-16T06:16:29.692Z,7.50
2022-11-16T06:18:56.283Z,7.50
2022-11-16T06:21:23.146Z,7.50
2022-11-16T06:23:49.734Z,7.50
2022-11-16T06:26:16.316Z,7.60
2022-11-16T06:28:42.883Z,7.60
2022-11-16T06:31:09.446Z,7.60
2022-11-16T06:33:35.998Z,7.60
2022-11-16T06:36:02.561Z,7.60
2022-11-16T06:38:29.131Z,7.70
2022-11-16T06:40:58.043Z,7.60
2022-11-16T06:43:26.043Z,7.70
2022-11-16T06:45:55.429Z,7.70
2022-11-16T06:48:22.538Z,7.70
2022-11-16T06:50:50.334Z,7.70
2022-11-16T06:53:17.704Z,7.70
2022-11-16T06:55:44.558Z,7.70
2022-11-16T06:58:11.347Z,7.70
2022-11-16T07:00:38.035Z,7.70
2022-11-16T07:03:04.668Z,7.70
2022-11-16T07:05:32.121Z,7.80
2022-11-16T07:07:59.060Z,7.90
2022-11-16T07:10:25.769Z,7.90
2022-11-16T07:12:52.346Z,7.90
2022-11-16T07:15:19.726Z,8.00
2022-11-16T07:17:46.734Z,8.00
2022-11-16T07:20:13.675Z,8.00
2022-11-16T07:22:40.414Z,8.00
2022-11-16T07:25:07.717Z,8.00
2022-11-16T07:27:34.276Z,8.10
2022-11-16T07:30:00.821Z,8.10
2022-11-16T07:32:28.999Z,8.20
2022-11-16T07:34:58.957Z,8.20
2022-11-16T07:37:25.885Z,8.20
2022-11-16T07:39:52.437Z,8.20
2022-11-16T07:42:19.001Z,8.30
2022-11-16T07:44:45.554Z,8.30
2022-11-16T07:47:12.189Z,8.30
2022-11-16T07:49:38.823Z,8.30
2022-11-16T07:52:07.624Z,8.30
2022-11-16T07:54:34.186Z,8.40
2022-11-16T07:57:01.919Z,8.40
2022-11-16T07:59:28.476Z,8.40
2022-11-16T08:01:55.200Z,8.50
2022-11-16T08:04:21.987Z,8.50
2022-11-16T08:06:48.594Z,8.50
2022-11-16T08:09:15.190Z,8.60
2022-11-16T08:11:41.774Z,8.60
2022-11-16T08:14:08.388Z,8.60
2022-11-16T08:16:34.940Z,8.60
2022-11-16T08:19:01.719Z,8.70
2022-11-16T08:21:28.320Z,8.70
2022-11-16T08:23:58.525Z,8.70
2022-11-16T08:26:25.550Z,8.70
2022-11-16T08:28:52.155Z,8.80
2022-11-16T08:31:21.664Z,8.80
2022-11-16T08:33:48.219Z,8.80
2022-11-16T08:36:14.963Z,8.80
2022-11-16T08:38:41.522Z,8.90
2022-11-16T08:41:08.529Z,8.80
2022-11-16T08:43:35.152Z,8.90
2022-11-16T08:46:01.817Z,8.90
2022-11-16T08:48:28.392Z,8.90
2022-11-16T08:51:16.480Z,8.90
2022-11-16T08:53:41.549Z,8.90
2022-11-16T08:56:10.571Z,9.00
2022-11-16T08:58:37.424Z,9.00
2022-11-16T09:01:09.180Z,9.00
2022-11-16T09:03:36.858Z,9.00
2022-11-16T09:06:03.574Z,9.10
2022-11-16T09:08:30.202Z,9.10
2022-11-16T09:10:56.766Z,9.10
2022-11-16T09:13:23.323Z,9.10
2022-11-16T09:15:59.483Z,9.20
2022-11-16T09:18:26.464Z,9.20
2022-11-16T09:20:53.351Z,9.20
2022-11-16T09:23:25.080Z,9.20
2022-11-16T09:25:52.508Z,9.20
2022-11-16T09:28:19.758Z,9.20
2022-11-16T09:30:48.572Z,9.20
2022-11-16T09:33:15.154Z,9.30
2022-11-16T09:35:42.215Z,9.30
2022-11-16T09:38:09.120Z,9.20
2022-11-16T09:40:39.119Z,9.20
2022-11-16T09:43:17.668Z,9.30
2022-11-16T09:46:09.412Z,9.30
2022-11-16T09:48:38.132Z,9.30
2022-11-16T09:51:08.781Z,9.30
2022-11-16T09:53:41.368Z,9.40
2022-11-16T09:56:21.717Z,9.40
2022-11-16T09:58:54.532Z,9.40
2022-11-16T10:01:23.995Z,9.40
2022-11-16T10:03:57.649Z,9.40
2022-11-16T10:06:47.077Z,9.50
2022-11-16T10:09:13.696Z,9.50
2022-11-16T10:12:02.231Z,9.50
2022-11-16T10:14:37.684Z,9.60
2022-11-16T10:17:31.403Z,9.60
2022-11-16T10:20:30.486Z,9.60
2022-11-16T10:23:11.630Z,9.60
2022-11-16T10:25:44.714Z,9.70
2022-11-16T10:28:33.081Z,9.70
2022-11-16T10:31:27.644Z,9.80
2022-11-16T10:33:56.765Z,9.90
2022-11-16T10:36:26.980Z,10.00
2022-11-16T10:38:56.638Z,10.10
2022-11-16T10:41:46.839Z,10.20
2022-11-16T10:44:24.768Z,10.30
2022-11-16T10:47:12.281Z,10.40
2022-11-16T10:49:58.608Z,10.50
2022-11-16T10:52:25.763Z,10.50
2022-11-16T10:54:52.529Z,10.60
2022-11-16T10:57:20.008Z,10.70
2022-11-16T10:59:48.870Z,10.80
2022-11-16T11:02:30.148Z,10.80
2022-11-16T11:05:19.409Z,10.90
2022-11-16T11:07:55.375Z,10.90
2022-11-16T11:10:33.728Z,10.90
2022-11-16T11:13:03.761Z,10.80
2022-11-16T11:15:30.377Z,10.90
2022-11-16T11:18:15.378Z,10.80
2022-11-16T11:20:45.589Z,10.90
2022-11-16T11:23:24.526Z,10.90
2022-11-16T11:25:52.878Z,11.00
2022-11-16T11:28:24.650Z,11.00
2022-11-16T11:31:16.769Z,10.90
2022-11-16T11:33:55.651Z,11.00
2022-11-16T11:36:32.695Z,11.00
2022-11-16T11:39:05.019Z,10.90
2022-11-16T11:42:23.620Z,10.90
2022-11-16T11:44:50.153Z,11.00
2022-11-16T11:50:19.074Z,11.00
2022-11-16T11:52:59.020Z,11.00
2022-11-16T11:55:25.780Z,11.10
2022-11-16T11:57:53.753Z,11.10
2022-11-16T12:00:20.480Z,11.00
2022-11-16T12:03:05.698Z,11.00
2022-11-16T12:05:32.262Z,11.00
2022-11-16T12:08:36.358Z,11.00
2022-11-16T12:11:24.212Z,11.00
2022-11-16T12:14:02.259Z,11.10
2022-11-16T12:16:57.628Z,11.10
2022-11-16T12:19:36.375Z,11.20
2022-11-16T12:22:36.912Z,11.20
2022-11-16T12:25:22.210Z,11.40
2022-11-16T12:28:08.139Z,11.60
2022-11-16T12:30:59.904Z,11.80
2022-11-16T12:33:31.787Z,12.10
2022-11-16T12:36:07.167Z,12.30
2022-11-16T12:38:39.829Z,12.40
2022-11-16T12:41:25.165Z,12.40
2022-11-16T12:44:00.757Z,12.40
2022-11-16T12:46:39.264Z,12.40
2022-11-16T12:49:36.460Z,12.50
2022-11-16T12:52:15.273Z,12.40
2022-11-16T12:55:24.071Z,12.40
2022-11-16T12:57:46.902Z,12.30
2022-11-16T13:00:18.778Z,12.20
2022-11-16T13:03:10.336Z,12.20
2022-11-16T13:05:42.800Z,12.20
2022-11-16T13:08:40.164Z,12.30
2022-11-16T13:11:33.762Z,12.40
2022-11-16T13:14:06.136Z,12.50
2022-11-16T13:16:33.934Z,12.40
2022-11-16T13:19:03.154Z,12.30
2022-11-16T13:21:48.370Z,12.10
2022-11-16T13:24:32.515Z,11.90
2022-11-16T13:27:16.130Z,11.80
2022-11-16T13:30:06.418Z,11.80
2022-11-16T13:32:42.818Z,11.70
2022-11-16T13:35:15.517Z,11.60
2022-11-16T13:37:47.045Z,11.50
2022-11-16T13:40:28.221Z,11.50
2022-11-16T13:43:05.033Z,11.50
2022-11-16T13:45:35.931Z,11.40
2022-11-16T13:48:14.259Z,11.30
2022-11-16T13:50:49.615Z,11.20
2022-11-16T13:56:16.391Z,11.20
2022-11-16T13:58:48.446Z,11.20
2022-11-16T14:01:16.302Z,11.10
2022-11-16T14:03:44.903Z,11.10
2022-11-16T14:06:23.401Z,11.10
2022-11-16T14:08:50.977Z,11.00
2022-11-16T14:11:38.213Z,11.00
2022-11-16T14:15:03.788Z,11.00
2022-11-16T14:17:59.289Z,10.90
2022-11-16T14:20:58.158Z,10.90
2022-11-16T14:23:55.373Z,10.90
2022-11-16T14:26:25.054Z,10.80
2022-11-16T14:29:27.887Z,10.80
2022-11-16T14:32:01.210Z,10.80
2022-11-16T14:34:39.782Z,10.80
2022-11-16T14:37:11.486Z,10.70
2022-11-16T14:39:40.893Z,10.70
2022-11-16T14:42:24.773Z,10.70
2022-11-16T14:45:00.442Z,10.60
2022-11-16T14:47:29.843Z,10.60
2022-11-16T14:49:57.392Z,10.60
2022-11-16T14:52:39.195Z,10.60
2022-11-16T14:55:08.786Z,10.50
2022-11-16T14:57:35.794Z,10.50
2022-11-16T15:00:17.365Z,10.40
2022-11-16T15:02:51.429Z,10.50
2022-11-16T15:05:21.077Z,10.40
2022-11-16T15:07:51.545Z,10.40
2022-11-16T15:10:21.565Z,10.40
2022-11-16T15:12:49.183Z,10.40
2022-11-16T15:15:18.271Z,10.40
2022-11-16T15:18:00.057Z,10.30
2022-11-16T15:20:28.820Z,10.30
2022-11-16T15:22:58.277Z,10.20
2022-11-16T15:25:43.119Z,10.20
2022-11-16T15:28:17.582Z,10.10
2022-11-16T15:30:51.500Z,10.00
2022-11-16T15:33:23.874Z,9.90
2022-11-16T15:35:50.523Z,9.80
2022-11-16T15:38:21.320Z,9.80
2022-11-16T15:40:56.440Z,9.70
2022-11-16T15:43:49.760Z,9.60
2022-11-16T15:46:23.106Z,9.60
2022-11-16T15:48:50.237Z,9.50
2022-11-16T15:51:19.128Z,9.40
2022-11-16T15:53:48.099Z,9.30
2022-11-16T15:56:26.807Z,9.30
2022-11-16T15:58:55.909Z,9.30
2022-11-16T16:01:23.236Z,9.20
2022-11-16T16:04:00.212Z,9.20
2022-11-16T16:06:52.819Z,9.10
2022-11-16T16:09:33.175Z,9.10
2022-11-16T16:12:19.303Z,9.00
2022-11-16T16:14:46.986Z,8.90
2022-11-16T16:17:23.361Z,8.90
2022-11-16T16:19:56.761Z,8.90
2022-11-16T16:22:35.193Z,8.80
2022-11-16T16:25:03.146Z,8.70
2022-11-16T16:27:30.897Z,8.60
2022-11-16T16:29:58.981Z,8.60
2022-11-16T16:32:33.748Z,8.60
2022-11-16T16:35:02.489Z,8.50
2022-11-16T16:37:31.180Z,8.50
2022-11-16T16:39:58.616Z,8.40
2022-11-16T16:42:25.582Z,8.30
2022-11-16T16:44:52.419Z,8.30
2022-11-16T16:47:19.501Z,8.20
2022-11-16T16:49:46.679Z,8.20
2022-11-16T16:52:13.492Z,8.10
2022-11-16T16:54:40.621Z,8.10
2022-11-16T16:57:11.972Z,8.10
2022-11-16T16:59:38.541Z,8.10
2022-11-16T17:02:05.130Z,8.00
2022-11-16T17:04:32.462Z,8.00
2022-11-16T17:06:59.056Z,7.90
2022-11-16T17:09:25.632Z,7.90
2022-11-16T17:11:52.201Z,7.90
2022-11-16T17:14:18.759Z,7.80
2022-11-16T17:16:45.352Z,7.80
2022-11-16T17:19:11.944Z,7.70
2022-11-16T17:21:38.525Z,7.70
2022-11-16T17:24:05.515Z,7.60
2022-11-16T17:26:32.092Z,7.60
2022-11-16T17:28:58.764Z,7.50
2022-11-16T17:31:26.127Z,7.50
2022-11-16T17:33:53.109Z,7.40
2022-11-16T17:36:20.130Z,7.50
2022-11-16T17:38:46.900Z,7.50
2022-11-16T17:41:18.815Z,7.50
2022-11-16T17:43:46.378Z,7.50
2022-11-16T17:46:14.005Z,7.40
2022-11-16T17:48:41.986Z,7.40
2022-11-16T17:51:09.216Z,7.30
2022-11-16T17:53:36.603Z,7.30
2022-11-16T17:56:04.504Z,7.20
2022-11-16T17:58:31.858Z,7.20
2022-11-16T18:00:58.739Z,7.20
2022-11-16T18:03:25.726Z,7.10
2022-11-16T18:05:52.345Z,7.10
2022-11-16T18:08:18.914Z,7.00
2022-11-16T18:10:45.488Z,7.00
2022-11-16T18:13:12.076Z,7.00
2022-11-16T18:15:42.370Z,6.90
2022-11-16T18:18:09.406Z,6.90
2022-11-16T18:20:37.130Z,6.80
2022-11-16T18:23:04.511Z,6.70
2022-11-16T18:25:33.986Z,6.70
2022-11-16T18:28:00.566Z,6.60
2022-11-16T18:30:27.131Z,6.60
2022-11-16T18:32:53.875Z,6.60
2022-11-16T18:35:20.528Z,6.60
2022-11-16T18:37:47.114Z,6.60
2022-11-16T18:40:13.975Z,6.60
2022-11-16T18:42:40.537Z,6.60
2022-11-16T18:45:07.788Z,6.60
2022-11-16T18:47:34.688Z,6.50
2022-11-16T18:50:01.445Z,6.40
2022-11-16T18:52:28.026Z,6.30
2022-11-16T18:54:54.583Z,6.30
2022-11-16T18:57:21.185Z,6.30
2022-11-16T18:59:47.756Z,6.20
2022-11-16T19:02:14.318Z,6.30
2022-11-16T19:04:40.940Z,6.20
2022-11-16T19:07:07.603Z,6.20
2022-11-16T19:09:34.277Z,6.20
2022-11-16T19:12:00.862Z,6.10
2022-11-16T19:14:27.440Z,6.10
2022-11-16T19:16:57.094Z,6.00
2022-11-16T19:19:24.058Z,6.00
2022-11-16T19:21:50.616Z,5.90
2022-11-16T19:24:17.191Z,5.80
2022-11-16T19:26:43.857Z,5.80
2022-11-16T19:29:10.451Z,5.80
2022-11-16T19:31:37.009Z,5.80
2022-11-16T19:34:06.487Z,5.70
2022-11-16T19:36:35.306Z,5.70
2022-11-16T19:39:02.289Z,5.70
2022-11-16T19:41:29.193Z,5.70
2022-11-16T19:43:58.425Z,5.70
2022-11-16T19:46:30.603Z,5.60
2022-11-16T19:48:57.431Z,5.60
2022-11-16T19:51:26.872Z,5.60
2022-11-16T19:53:53.995Z,5.60
2022-11-16T19:56:22.525Z,5.60
2022-11-16T19:58:49.321Z,5.50
2022-11-16T20:01:21.881Z,5.50
2022-11-16T20:03:49.169Z,5.50
2022-11-16T20:06:21.146Z,5.40
2022-11-16T20:08:52.869Z,5.40
2022-11-16T20:11:24.537Z,5.30
2022-11-16T20:13:53.759Z,5.30
2022-11-16T20:16:22.420Z,5.30
2022-11-16T20:18:49.328Z,5.30
2022-11-16T20:21:21.978Z,5.20
2022-11-16T20:23:49.353Z,5.20
2022-11-16T20:26:15.988Z,5.20
2022-11-16T20:28:43.825Z,5.10
2022-11-16T20:31:15.147Z,5.10
2022-11-16T20:33:42.387Z,5.10
2022-11-16T20:36:11.272Z,5.10
2022-11-16T20:38:38.982Z,5.00
2022-11-16T20:41:13.990Z,5.00
2022-11-16T20:43:41.510Z,5.00
2022-11-16T20:46:09.679Z,5.00
2022-11-16T20:48:36.476Z,5.00
2022-11-16T20:51:03.851Z,5.00
2022-11-16T20:53:30.785Z,4.90
2022-11-16T20:55:57.604Z,4.80
2022-11-16T20:58:24.881Z,4.80
2022-11-16T21:00:51.546Z,4.80
2022-11-16T21:03:18.164Z,4.80
2022-11-16T21:05:46.266Z,4.80
2022-11-16T21:08:13.232Z,4.70
2022-11-16T21:10:39.965Z,4.70
2022-11-16T21:13:11.355Z,4.60
2022-11-16T21:15:37.935Z,4.60
2022-11-16T21:18:04.673Z,4.50
2022-11-16T21:20:31.277Z,4.50
2022-11-16T21:22:57.863Z,4.60
2022-11-16T21:25:24.431Z,4.60
2022-11-16T21:27:50.981Z,4.60
2022-11-16T21:30:17.569Z,4.60
2022-11-16T21:32:44.149Z,4.60
2022-11-16T21:35:10.722Z,4.60
2022-11-16T21:37:37.303Z,4.60
2022-11-16T21:40:04.219Z,4.60
2022-11-16T21:42:30.776Z,4.60
2022-11-16T21:44:57.362Z,4.60
2022-11-16T21:47:23.918Z,4.50
2022-11-16T21:50:16.757Z,4.40
2022-11-16T21:52:37.007Z,4.50
2022-11-16T21:55:03.773Z,4.40
2022-11-16T21:57:30.356Z,4.40
2022-11-16T21:59:56.933Z,4.40
2022-11-16T22:02:23.504Z,4.30
2022-11-16T22:04:50.083Z,4.20
2022-11-16T22:07:17.047Z,4.30
2022-11-16T22:09:43.646Z,4.30
2022-11-16T22:12:10.202Z,4.30
2022-11-16T22:14:36.790Z,4.30
2022-11-16T22:17:03.357Z,4.30
2022-11-16T22:19:29.909Z,4.20
2022-11-16T22:21:56.455Z,4.30
2022-11-16T22:24:23.159Z,4.20
2022-11-16T22:26:49.773Z,4.20
2022-11-16T22:29:16.339Z,4.20
2022-11-16T22:31:42.897Z,4.30
2022-11-16T22:34:09.483Z,4.30
2022-11-16T22:36:36.032Z,4.30
2022-11-16T22:39:02.637Z,4.20
2022-11-16T22:41:29.296Z,4.10
2022-11-16T22:43:55.843Z,4.00
2022-11-16T22:46:22.424Z,4.00
2022-11-16T22:48:48.960Z,4.00
2022-11-16T22:51:19.549Z,4.00
2022-11-16T22:53:46.374Z,4.10
2022-11-16T22:56:13.184Z,4.10
2022-11-16T22:58:40.247Z,4.10
2022-11-16T23:01:08.843Z,4.20
2022-11-16T23:03:36.186Z,4.10
2022-11-16T23:06:03.584Z,4.10
2022-11-16T23:08:30.416Z,4.10
2022-11-16T23:11:08.404Z,4.20
2022-11-16T23:13:35.174Z,4.20
2022-11-16T23:16:05.368Z,4.10
2022-11-16T23:18:31.936Z,4.10
2022-11-16T23:20:58.531Z,4.10
2022-11-16T23:23:25.109Z,4.10
2022-11-16T23:25:51.728Z,4.00
2022-11-16T23:28:19.707Z,4.00
2022-11-16T23:30:46.263Z,4.00
2022-11-16T23:33:13.073Z,4.00
2022-11-16T23:35:39.642Z,3.90
2022-11-16T23:38:07.647Z,3.90
2022-11-16T23:40:39.284Z,3.90
2022-11-16T23:43:06.852Z,3.90
2022-11-16T23:45:33.516Z,3.80
2022-11-16T23:48:00.104Z,3.80
2022-11-16T23:50:26.682Z,3.90
2022-11-16T23:52:53.368Z,3.90
2022-11-16T23:55:19.947Z,3.90
2022-11-16T23:57:46.490Z,3.90
